createdAt,value
2022-08-09T00:00:24.079Z,13.48
2022-08-09T00:01:24.148Z,13.47
2022-08-09T00:02:25.915Z,13.35
2022-08-09T00:04:03.691Z,13.41
2022-08-09T00:04:34.983Z,13.32
2022-08-09T00:06:18.465Z,13.27
2022-08-09T00:06:25.028Z,13.32
2022-08-09T00:07:24.006Z,13.35
2022-08-09T00:08:32.151Z,13.32
2022-08-09T00:09:24.981Z,13.31
2022-08-09T00:10:24.659Z,13.36
2022-08-09T00:11:25.163Z,13.32
2022-08-09T00:12:23.988Z,13.27
2022-08-09T00:13:23.957Z,13.25
2022-08-09T00:14:30.644Z,13.31
2022-08-09T00:15:35.233Z,13.27
2022-08-09T00:16:26.233Z,13.29
2022-08-09T00:18:10.794Z,13.28
2022-08-09T00:18:24.906Z,13.24
2022-08-09T00:19:23.879Z,13.35
2022-08-09T00:20:23.867Z,13.25
2022-08-09T00:21:23.861Z,13.32
2022-08-09T00:22:23.889Z,13.25
2022-08-09T00:23:56.663Z,13.25
2022-08-09T00:24:24.812Z,13.35
2022-08-09T00:25:32.057Z,13.17
2022-08-09T00:26:30.005Z,13.21
2022-08-09T00:27:24.805Z,13.14
2022-08-09T00:28:26.392Z,13.14
2022-08-09T00:29:39.706Z,13.12
2022-08-09T00:30:27.027Z,13.17
2022-08-09T00:31:57.482Z,13.14
2022-08-09T00:32:25.347Z,13.12
2022-08-09T00:33:32.742Z,13.21
2022-08-09T00:34:24.771Z,13.16
2022-08-09T00:35:23.688Z,13.10
2022-08-09T00:36:29.683Z,13.07
2022-08-09T00:37:24.679Z,13.13
2022-08-09T00:38:23.673Z,13.09
2022-08-09T00:40:13.663Z,13.09
2022-08-09T00:40:30.964Z,13.06
2022-08-09T00:44:10.642Z,13.06
2022-08-09T00:44:10.889Z,13.07
2022-08-09T00:44:14.881Z,13.10
2022-08-09T00:44:27.308Z,13.12
2022-08-09T00:45:23.590Z,13.01
2022-08-09T00:46:55.219Z,13.07
2022-08-09T00:47:25.271Z,13.10
2022-08-09T00:48:23.561Z,13.07
2022-08-09T00:49:23.571Z,13.03
2022-08-09T00:50:23.555Z,13.10
2022-08-09T00:51:23.525Z,13.04
2022-08-09T00:52:30.420Z,13.10
2022-08-09T00:53:24.646Z,13.12
2022-08-09T00:54:23.501Z,13.06
2022-08-09T00:56:03.380Z,13.04
2022-08-09T00:56:24.520Z,13.07
2022-08-09T00:57:24.837Z,13.03
2022-08-09T00:58:27.677Z,13.06
2022-08-09T00:59:40.948Z,13.03
2022-08-09T01:00:24.428Z,13.03
2022-08-09T01:01:23.501Z,13.07
2022-08-09T01:02:24.486Z,13.01
2022-08-09T01:03:23.387Z,13.01
2022-08-09T01:04:24.402Z,13.10
2022-08-09T01:05:23.383Z,13.07
2022-08-09T01:06:25.532Z,13.06
2022-08-09T01:07:38.113Z,13.04
2022-08-09T01:08:27.113Z,13.06
2022-08-09T01:09:23.408Z,13.06
2022-08-09T01:10:23.348Z,13.09
2022-08-09T01:11:24.307Z,13.04
2022-08-09T01:12:23.297Z,13.04
2022-08-09T01:13:23.285Z,13.07
2022-08-09T01:14:23.266Z,13.04
2022-08-09T01:15:23.257Z,13.06
2022-08-09T01:16:23.261Z,13.06
2022-08-09T01:17:23.236Z,13.01
2022-08-09T01:18:29.991Z,13.03
2022-08-09T01:19:43.254Z,12.95
2022-08-09T01:20:24.198Z,12.94
2022-08-09T01:21:24.731Z,13.06
2022-08-09T01:22:23.184Z,12.99
2022-08-09T01:24:01.748Z,12.98
2022-08-09T01:24:24.158Z,13.07
2022-08-09T01:25:23.144Z,12.99
2022-08-09T01:26:23.139Z,12.94
2022-08-09T01:27:23.177Z,12.98
2022-08-09T01:28:23.121Z,12.88
2022-08-09T01:29:23.131Z,12.95
2022-08-09T01:30:28.510Z,12.89
2022-08-09T01:32:30.217Z,12.88
2022-08-09T01:32:44.011Z,12.91
2022-08-09T01:33:24.074Z,12.84
2022-08-09T01:34:23.063Z,12.91
2022-08-09T01:35:37.206Z,12.87
2022-08-09T01:36:24.057Z,12.92
2022-08-09T01:38:05.702Z,12.84
2022-08-09T01:38:24.516Z,12.84
2022-08-09T01:39:23.324Z,12.85
2022-08-09T01:40:28.264Z,12.87
2022-08-09T01:41:26.100Z,12.76
2022-08-09T01:42:22.961Z,12.81
2022-08-09T01:43:24.220Z,12.81
2022-08-09T01:44:22.937Z,12.74
2022-08-09T01:45:22.932Z,12.61
2022-08-09T01:46:24.591Z,12.73
2022-08-09T01:47:22.908Z,12.74
2022-08-09T01:48:24.047Z,12.63
2022-08-09T01:49:24.339Z,12.71
2022-08-09T01:50:36.512Z,12.84
2022-08-09T01:51:23.863Z,12.77
2022-08-09T01:52:22.852Z,12.73
2022-08-09T01:53:22.845Z,12.74
2022-08-09T01:54:22.829Z,12.63
2022-08-09T01:55:22.834Z,12.79
2022-08-09T01:56:22.814Z,12.67
2022-08-09T01:57:22.813Z,12.73
2022-08-09T01:58:24.218Z,12.73
2022-08-09T01:59:23.009Z,12.61
2022-08-09T02:00:35.525Z,12.62
2022-08-09T02:01:57.859Z,12.67
2022-08-09T02:02:23.871Z,12.61
2022-08-09T02:03:23.757Z,12.54
2022-08-09T02:04:22.720Z,12.63
2022-08-09T02:05:37.644Z,12.62
2022-08-09T02:06:23.833Z,12.62
2022-08-09T02:08:40.511Z,12.62
2022-08-09T02:08:40.763Z,12.61
2022-08-09T02:09:23.668Z,12.59
2022-08-09T02:10:29.680Z,12.58
2022-08-09T02:11:23.721Z,12.58
2022-08-09T02:12:22.638Z,12.58
2022-08-09T02:13:26.307Z,12.52
2022-08-09T02:14:26.585Z,12.56
2022-08-09T02:15:22.682Z,12.56
2022-08-09T02:16:33.848Z,12.52
2022-08-09T02:18:00.199Z,12.51
2022-08-09T02:18:23.794Z,12.46
2022-08-09T02:19:22.576Z,12.58
2022-08-09T02:20:25.080Z,12.48
2022-08-09T02:21:23.558Z,12.49
2022-08-09T02:22:31.642Z,12.52
2022-08-09T02:23:23.515Z,12.46
2022-08-09T02:24:26.096Z,12.49
2022-08-09T02:25:22.500Z,12.44
2022-08-09T02:26:26.784Z,12.49
2022-08-09T02:27:43.139Z,12.49
2022-08-09T02:28:24.126Z,12.52
2022-08-09T02:29:22.455Z,12.46
2022-08-09T02:30:22.434Z,12.48
2022-08-09T02:31:22.453Z,12.49
2022-08-09T02:32:22.553Z,12.41
2022-08-09T02:33:22.956Z,12.44
2022-08-09T02:34:40.376Z,12.48
2022-08-09T02:36:01.926Z,12.51
2022-08-09T02:36:23.386Z,12.48
2022-08-09T02:37:22.374Z,12.51
2022-08-09T02:38:28.941Z,12.46
2022-08-09T02:39:34.233Z,12.48
2022-08-09T02:40:26.830Z,12.49
2022-08-09T02:41:22.324Z,12.46
2022-08-09T02:42:24.789Z,12.44
2022-08-09T02:43:22.317Z,12.44
2022-08-09T02:44:29.032Z,12.36
2022-08-09T02:45:26.583Z,12.48
2022-08-09T02:46:23.254Z,12.46
2022-08-09T02:47:22.257Z,12.46
2022-08-09T02:48:31.040Z,12.38
2022-08-09T02:49:27.138Z,12.36
2022-08-09T02:50:24.302Z,12.34
2022-08-09T02:51:22.206Z,12.37
2022-08-09T02:52:22.204Z,12.37
2022-08-09T02:53:26.248Z,12.34
2022-08-09T02:54:22.188Z,12.34
2022-08-09T02:55:22.170Z,12.25
2022-08-09T02:56:22.168Z,12.26
2022-08-09T02:57:23.266Z,12.29
2022-08-09T02:58:32.786Z,12.33
2022-08-09T02:59:26.296Z,12.26
2022-08-09T03:00:25.872Z,12.31
2022-08-09T03:01:29.359Z,12.31
2022-08-09T03:02:23.175Z,12.34
2022-08-09T03:03:37.196Z,12.31
2022-08-09T03:04:28.786Z,12.37
2022-08-09T03:05:23.060Z,12.33
2022-08-09T03:06:22.043Z,12.30
2022-08-09T03:07:22.121Z,12.22
2022-08-09T03:08:22.027Z,12.31
2022-08-09T03:09:22.023Z,12.25
2022-08-09T03:10:21.999Z,12.23
2022-08-09T03:12:04.877Z,12.25
2022-08-09T03:12:22.986Z,12.26
2022-08-09T03:13:22.015Z,12.30
2022-08-09T03:14:21.975Z,12.23
2022-08-09T03:15:23.163Z,12.29
2022-08-09T03:16:21.946Z,12.29
2022-08-09T03:17:27.017Z,12.31
2022-08-09T03:18:31.078Z,12.25
2022-08-09T03:19:58.002Z,12.19
2022-08-09T03:20:23.560Z,12.19
2022-08-09T03:21:25.757Z,12.23
2022-08-09T03:22:30.034Z,12.18
2022-08-09T03:23:24.422Z,12.21
2022-08-09T03:24:31.280Z,12.05
2022-08-09T03:25:27.037Z,12.04
2022-08-09T03:26:30.779Z,12.18
2022-08-09T03:27:22.815Z,12.05
2022-08-09T03:28:21.817Z,12.08
2022-08-09T03:29:22.634Z,12.07
2022-08-09T03:30:28.083Z,12.15
2022-08-09T03:31:22.915Z,12.04
2022-08-09T03:32:21.749Z,12.12
2022-08-09T03:33:21.750Z,12.07
2022-08-09T03:34:21.742Z,12.11
2022-08-09T03:35:44.192Z,12.05
2022-08-09T03:36:27.285Z,12.12
2022-08-09T03:37:54.306Z,12.08
2022-08-09T03:38:28.798Z,12.05
2022-08-09T03:39:27.001Z,12.03
2022-08-09T03:40:22.705Z,12.07
2022-08-09T03:41:21.669Z,12.05
2022-08-09T03:42:26.316Z,12.07
2022-08-09T03:43:22.673Z,11.96
2022-08-09T03:44:21.621Z,12.08
2022-08-09T03:46:04.207Z,12.11
2022-08-09T03:46:29.173Z,12.08
2022-08-09T03:47:22.572Z,12.04
2022-08-09T03:48:29.270Z,12.07
2022-08-09T03:49:24.040Z,12.04
2022-08-09T03:50:27.728Z,12.07
2022-08-09T03:51:43.830Z,12.08
2022-08-09T03:52:22.545Z,11.97
2022-08-09T03:53:22.592Z,12.11
2022-08-09T03:54:29.601Z,12.05
2022-08-09T03:55:22.482Z,12.11
2022-08-09T03:56:21.478Z,12.12
2022-08-09T03:57:21.667Z,12.07
2022-08-09T03:58:21.462Z,12.11
2022-08-09T03:59:32.984Z,12.00
2022-08-09T04:00:22.445Z,12.11
2022-08-09T04:01:21.429Z,12.07
2022-08-09T04:02:29.928Z,12.11
2022-08-09T04:03:35.492Z,12.03
2022-08-09T04:04:24.696Z,12.03
2022-08-09T04:05:27.520Z,12.03
2022-08-09T04:06:22.427Z,12.05
2022-08-09T04:07:21.357Z,12.07
2022-08-09T04:08:28.952Z,12.19
2022-08-09T04:09:48.441Z,12.11
2022-08-09T04:10:29.719Z,12.13
2022-08-09T04:11:22.301Z,12.07
2022-08-09T04:12:30.061Z,12.13
2022-08-09T04:13:44.947Z,12.12
2022-08-09T04:14:53.466Z,12.11
2022-08-09T04:15:38.835Z,12.04
2022-08-09T04:16:22.258Z,12.08
2022-08-09T04:17:21.232Z,12.05
2022-08-09T04:18:21.903Z,12.08
2022-08-09T04:19:30.314Z,12.04
2022-08-09T04:20:22.207Z,12.11
2022-08-09T04:21:22.191Z,12.13
2022-08-09T04:22:21.212Z,12.11
2022-08-09T04:23:24.382Z,12.12
2022-08-09T04:24:21.155Z,12.11
2022-08-09T04:25:22.168Z,12.11
2022-08-09T04:26:23.343Z,12.08
2022-08-09T04:27:22.041Z,12.08
2022-08-09T04:28:34.053Z,12.08
2022-08-09T04:29:22.162Z,12.01
2022-08-09T04:30:23.460Z,12.05
2022-08-09T04:31:22.091Z,12.08
2022-08-09T04:32:31.342Z,12.07
2022-08-09T04:33:22.055Z,12.03
2022-08-09T04:34:31.741Z,12.15
2022-08-09T04:35:22.111Z,12.13
2022-08-09T04:36:21.025Z,12.22
2022-08-09T04:37:21.019Z,12.11
2022-08-09T04:38:21.004Z,12.05
2022-08-09T04:39:21.046Z,12.05
2022-08-09T04:40:35.821Z,12.12
2022-08-09T04:41:24.044Z,12.23
2022-08-09T04:42:20.952Z,12.16
2022-08-09T04:43:20.951Z,12.11
2022-08-09T04:44:20.936Z,12.18
2022-08-09T04:45:20.928Z,12.12
2022-08-09T04:46:37.967Z,12.04
2022-08-09T04:47:21.894Z,12.13
2022-08-09T04:48:20.901Z,12.03
2022-08-09T04:49:30.108Z,12.07
2022-08-09T04:50:21.877Z,12.03
2022-08-09T04:51:21.959Z,12.04
2022-08-09T04:52:22.162Z,12.07
2022-08-09T04:53:21.825Z,12.11
2022-08-09T04:54:20.840Z,12.07
2022-08-09T04:55:20.817Z,12.13
2022-08-09T04:56:20.799Z,12.07
2022-08-09T04:57:24.186Z,12.03
2022-08-09T04:58:20.797Z,12.00
2022-08-09T04:59:21.116Z,12.08
2022-08-09T05:00:20.747Z,12.21
2022-08-09T05:01:20.751Z,12.15
2022-08-09T05:02:20.740Z,12.16
2022-08-09T05:03:41.086Z,12.16
2022-08-09T05:04:21.872Z,12.18
2022-08-09T05:05:32.151Z,12.31
2022-08-09T05:06:27.121Z,12.21
2022-08-09T05:07:21.670Z,12.26
2022-08-09T05:08:20.659Z,12.29
2022-08-09T05:09:20.657Z,12.26
2022-08-09T05:10:20.662Z,12.52
2022-08-09T05:11:20.662Z,12.74
2022-08-09T05:12:23.613Z,13.25
2022-08-09T05:13:20.615Z,13.84
2022-08-09T05:14:21.592Z,14.19
2022-08-09T05:15:38.360Z,14.49
2022-08-09T05:16:21.579Z,14.82
2022-08-09T05:18:39.450Z,15.07
2022-08-09T05:18:50.488Z,14.98
2022-08-09T05:19:24.306Z,15.23
2022-08-09T05:20:20.534Z,14.85
2022-08-09T05:21:24.480Z,14.79
2022-08-09T05:22:35.761Z,15.13
2022-08-09T05:23:54.130Z,15.43
2022-08-09T05:24:21.527Z,15.56
2022-08-09T05:25:20.662Z,15.80
2022-08-09T05:26:26.589Z,15.95
2022-08-09T05:27:21.509Z,16.23
2022-08-09T05:28:20.461Z,16.37
2022-08-09T05:29:21.692Z,16.42
2022-08-09T05:30:20.460Z,15.92
2022-08-09T05:31:37.063Z,15.67
2022-08-09T05:32:21.407Z,15.56
2022-08-09T05:33:26.408Z,15.74
2022-08-09T05:34:21.375Z,15.99
2022-08-09T05:35:22.049Z,16.30
2022-08-09T05:36:20.369Z,16.36
2022-08-09T05:37:21.347Z,16.80
2022-08-09T05:38:21.921Z,16.78
2022-08-09T05:39:21.650Z,16.98
2022-08-09T05:40:21.737Z,16.82
2022-08-09T05:41:20.305Z,16.59
2022-08-09T05:42:21.571Z,16.36
2022-08-09T05:43:20.269Z,16.10
2022-08-09T05:44:22.226Z,16.06
2022-08-09T05:45:21.258Z,16.06
2022-08-09T05:46:20.239Z,16.25
2022-08-09T05:47:21.737Z,16.51
2022-08-09T05:48:20.243Z,16.73
2022-08-09T05:50:24.209Z,16.85
2022-08-09T05:50:32.196Z,17.03
2022-08-09T05:51:42.995Z,17.07
2022-08-09T05:52:21.183Z,17.35
2022-08-09T05:53:30.955Z,17.68
2022-08-09T05:54:21.158Z,17.81
2022-08-09T05:55:21.295Z,17.87
2022-08-09T05:56:20.213Z,17.54
2022-08-09T05:57:25.064Z,17.46
2022-08-09T05:58:21.115Z,16.90
2022-08-09T05:59:20.118Z,16.59
2022-08-09T06:00:20.091Z,16.65
2022-08-09T06:01:20.076Z,16.96
2022-08-09T06:02:20.078Z,16.75
2022-08-09T06:03:20.554Z,16.60
2022-08-09T06:04:23.294Z,16.72
2022-08-09T06:05:20.035Z,16.91
2022-08-09T06:06:21.020Z,17.05
2022-08-09T06:07:21.483Z,17.22
2022-08-09T06:08:24.426Z,17.24
2022-08-09T06:09:40.417Z,17.32
2022-08-09T06:10:20.984Z,17.47
2022-08-09T06:11:19.973Z,17.70
2022-08-09T06:12:20.964Z,17.84
2022-08-09T06:13:21.183Z,17.89
2022-08-09T06:14:19.943Z,17.70
2022-08-09T06:15:19.953Z,17.38
2022-08-09T06:16:19.918Z,17.18
2022-08-09T06:17:19.903Z,17.22
2022-08-09T06:18:20.461Z,17.03
2022-08-09T06:19:21.094Z,17.27
2022-08-09T06:20:19.869Z,16.98
2022-08-09T06:21:19.861Z,16.73
2022-08-09T06:22:22.492Z,17.09
2022-08-09T06:23:20.828Z,17.02
2022-08-09T06:24:19.822Z,16.78
2022-08-09T06:25:21.287Z,17.02
2022-08-09T06:26:20.107Z,17.40
2022-08-09T06:27:19.796Z,17.60
2022-08-09T06:28:19.777Z,17.57
2022-08-09T06:29:21.437Z,17.40
2022-08-09T06:30:19.757Z,17.35
2022-08-09T06:31:31.466Z,17.51
2022-08-09T06:32:53.221Z,17.65
2022-08-09T06:33:39.757Z,17.74
2022-08-09T06:34:22.688Z,17.70
2022-08-09T06:35:19.703Z,17.89
2022-08-09T06:36:19.710Z,18.11
2022-08-09T06:37:20.675Z,17.89
2022-08-09T06:38:20.668Z,17.71
2022-08-09T06:39:19.742Z,17.65
2022-08-09T06:40:21.573Z,17.74
2022-08-09T06:41:20.434Z,17.95
2022-08-09T06:42:30.317Z,18.04
2022-08-09T06:43:20.620Z,17.96
2022-08-09T06:44:19.608Z,18.36
2022-08-09T06:46:05.162Z,18.39
2022-08-09T06:46:40.218Z,18.56
2022-08-09T06:47:20.581Z,18.56
2022-08-09T06:48:30.229Z,18.76
2022-08-09T06:49:29.166Z,18.84
2022-08-09T06:50:22.428Z,18.69
2022-08-09T06:51:19.529Z,18.72
2022-08-09T06:52:19.531Z,18.87
2022-08-09T06:53:19.632Z,18.84
2022-08-09T06:54:20.448Z,18.90
2022-08-09T06:55:23.222Z,18.83
2022-08-09T06:56:19.465Z,19.16
2022-08-09T06:57:19.453Z,19.50
2022-08-09T07:00:46.942Z,19.42
2022-08-09T07:00:49.653Z,18.89
2022-08-09T07:00:55.743Z,18.34
2022-08-09T07:01:20.420Z,18.26
2022-08-09T07:02:19.490Z,18.29
2022-08-09T07:03:19.387Z,18.35
2022-08-09T07:04:20.461Z,18.64
2022-08-09T07:05:19.386Z,18.19
2022-08-09T07:06:19.560Z,18.26
2022-08-09T07:07:58.943Z,18.56
2022-08-09T07:08:20.346Z,18.44
2022-08-09T07:09:56.158Z,18.68
2022-08-09T07:10:30.003Z,19.07
2022-08-09T07:11:25.240Z,19.09
2022-08-09T07:12:20.437Z,19.07
2022-08-09T07:13:28.393Z,19.24
2022-08-09T07:14:26.782Z,19.42
2022-08-09T07:16:35.204Z,19.24
2022-08-09T07:16:42.868Z,19.28
2022-08-09T07:17:20.248Z,19.57
2022-08-09T07:18:19.246Z,19.21
2022-08-09T07:19:23.394Z,18.66
2022-08-09T07:20:19.201Z,19.15
2022-08-09T07:21:20.010Z,19.42
2022-08-09T07:22:34.273Z,19.47
2022-08-09T07:23:20.223Z,19.05
2022-08-09T07:24:19.159Z,18.53
2022-08-09T07:25:19.155Z,18.84
2022-08-09T07:26:19.148Z,18.65
2022-08-09T07:27:33.044Z,18.99
2022-08-09T07:28:26.172Z,18.97
2022-08-09T07:29:20.116Z,19.09
2022-08-09T07:30:19.100Z,19.13
2022-08-09T07:31:19.207Z,18.91
2022-08-09T07:32:19.084Z,19.12
2022-08-09T07:33:19.096Z,19.49
2022-08-09T07:34:20.139Z,19.42
2022-08-09T07:35:19.300Z,19.47
2022-08-09T07:36:19.036Z,19.61
2022-08-09T07:37:19.080Z,19.50
2022-08-09T07:38:19.016Z,19.15
2022-08-09T07:39:20.130Z,19.32
2022-08-09T07:40:20.637Z,19.42
2022-08-09T07:41:20.101Z,19.34
2022-08-09T07:42:18.961Z,19.43
2022-08-09T07:43:18.974Z,20.16
2022-08-09T07:44:18.954Z,20.63
2022-08-09T07:45:33.306Z,20.75
2022-08-09T07:46:19.910Z,20.48
2022-08-09T07:47:18.921Z,20.69
2022-08-09T07:48:25.604Z,20.81
2022-08-09T07:49:19.915Z,20.83
2022-08-09T07:50:18.875Z,20.60
2022-08-09T07:52:04.466Z,20.26
2022-08-09T07:52:19.860Z,20.17
2022-08-09T07:53:18.881Z,20.08
2022-08-09T07:54:28.281Z,19.89
2022-08-09T07:55:19.871Z,19.72
2022-08-09T07:56:26.909Z,19.72
2022-08-09T07:57:19.791Z,19.61
2022-08-09T07:58:18.787Z,19.65
2022-08-09T07:59:25.116Z,19.78
2022-08-09T08:00:20.309Z,19.64
2022-08-09T08:01:21.690Z,19.39
2022-08-09T08:02:20.225Z,19.71
2022-08-09T08:03:18.753Z,19.90
2022-08-09T08:04:19.723Z,20.05
2022-08-09T08:05:19.714Z,19.97
2022-08-09T08:06:21.194Z,19.58
2022-08-09T08:08:44.262Z,19.97
2022-08-09T08:09:01.720Z,20.20
2022-08-09T08:09:38.510Z,20.31
2022-08-09T08:10:19.669Z,20.00
2022-08-09T08:12:24.359Z,19.83
2022-08-09T08:12:27.773Z,19.95
2022-08-09T08:13:19.628Z,19.97
2022-08-09T08:14:18.653Z,20.08
2022-08-09T08:15:18.632Z,20.33
2022-08-09T08:16:31.851Z,20.58
2022-08-09T08:17:35.336Z,20.98
2022-08-09T08:18:19.590Z,20.68
2022-08-09T08:19:18.560Z,20.93
2022-08-09T08:20:19.491Z,21.06
2022-08-09T08:21:21.262Z,21.08
2022-08-09T08:22:18.536Z,21.28
2022-08-09T08:23:19.534Z,21.24
2022-08-09T08:24:18.511Z,20.93
2022-08-09T08:25:19.419Z,20.66
2022-08-09T08:26:18.505Z,20.71
2022-08-09T08:27:19.494Z,20.81
2022-08-09T08:28:26.028Z,20.40
2022-08-09T08:29:20.211Z,20.44
2022-08-09T08:30:19.497Z,20.31
2022-08-09T08:31:18.420Z,20.96
2022-08-09T08:32:24.404Z,21.05
2022-08-09T08:33:23.083Z,21.01
2022-08-09T08:34:20.938Z,20.79
2022-08-09T08:35:19.406Z,21.13
2022-08-09T08:36:28.318Z,21.06
2022-08-09T08:37:19.365Z,21.56
2022-08-09T08:38:18.349Z,21.56
2022-08-09T08:39:18.437Z,21.64
2022-08-09T08:40:18.995Z,21.08
2022-08-09T08:41:18.326Z,20.75
2022-08-09T08:42:18.323Z,20.91
2022-08-09T08:43:19.296Z,21.16
2022-08-09T08:44:23.025Z,21.56
2022-08-09T08:45:19.280Z,21.73
2022-08-09T08:46:33.693Z,22.05
2022-08-09T08:47:19.315Z,21.79
2022-08-09T08:48:19.528Z,21.66
2022-08-09T08:49:18.929Z,22.09
2022-08-09T08:50:18.717Z,22.29
2022-08-09T08:51:18.358Z,22.30
2022-08-09T08:52:57.531Z,22.26
2022-08-09T08:53:21.984Z,21.71
2022-08-09T08:54:20.545Z,21.86
2022-08-09T08:55:23.165Z,21.71
2022-08-09T08:56:28.254Z,22.24
2022-08-09T08:57:19.132Z,22.08
2022-08-09T08:58:18.121Z,21.74
2022-08-09T08:59:20.476Z,22.05
2022-08-09T09:00:20.782Z,22.08
2022-08-09T09:01:19.721Z,21.68
2022-08-09T09:02:30.645Z,21.82
2022-08-09T09:03:22.651Z,22.08
2022-08-09T09:04:18.082Z,22.39
2022-08-09T09:05:19.051Z,22.60
2022-08-09T09:06:19.043Z,22.61
2022-08-09T09:07:18.058Z,22.19
2022-08-09T09:08:30.142Z,22.33
2022-08-09T09:09:21.277Z,22.14
2022-08-09T09:10:19.010Z,22.46
2022-08-09T09:11:19.937Z,22.79
2022-08-09T09:12:17.978Z,22.60
2022-08-09T09:13:18.004Z,22.54
2022-08-09T09:14:17.945Z,22.36
2022-08-09T09:15:28.364Z,21.33
2022-08-09T09:16:18.949Z,21.49
2022-08-09T09:17:18.919Z,21.64
2022-08-09T09:18:17.909Z,21.53
2022-08-09T09:19:42.183Z,21.70
2022-08-09T09:20:18.885Z,21.68
2022-08-09T09:21:17.878Z,21.86
2022-08-09T09:22:26.574Z,22.19
2022-08-09T09:23:18.890Z,22.51
2022-08-09T09:24:21.577Z,22.81
2022-08-09T09:26:04.472Z,22.66
2022-08-09T09:26:18.824Z,22.26
2022-08-09T09:28:04.039Z,22.21
2022-08-09T09:28:21.286Z,21.91
2022-08-09T09:29:19.042Z,22.09
2022-08-09T09:30:38.289Z,22.05
2022-08-09T09:32:01.848Z,21.55
2022-08-09T09:32:18.772Z,21.67
2022-08-09T09:33:18.739Z,22.09
2022-08-09T09:34:18.485Z,22.26
2022-08-09T09:35:17.893Z,21.98
2022-08-09T09:36:20.858Z,21.73
2022-08-09T09:37:17.699Z,21.79
2022-08-09T09:38:27.531Z,21.40
2022-08-09T09:39:19.951Z,21.43
2022-08-09T09:40:17.993Z,21.61
2022-08-09T09:41:17.665Z,21.61
2022-08-09T09:42:17.646Z,21.67
2022-08-09T09:43:17.681Z,21.74
2022-08-09T09:44:25.575Z,22.42
2022-08-09T09:45:26.744Z,22.56
2022-08-09T09:47:21.496Z,22.21
2022-08-09T09:48:17.597Z,22.51
2022-08-09T09:49:17.563Z,22.49
2022-08-09T09:50:18.608Z,22.59
2022-08-09T09:51:26.135Z,22.14
2022-08-09T09:52:36.240Z,22.56
2022-08-09T09:53:20.116Z,22.49
2022-08-09T09:54:20.739Z,22.20
2022-08-09T09:55:28.442Z,22.09
2022-08-09T09:56:19.853Z,22.38
2022-08-09T09:58:02.225Z,22.70
2022-08-09T09:58:19.932Z,22.63
2022-08-09T09:59:17.622Z,22.94
2022-08-09T10:00:17.562Z,23.37
2022-08-09T10:01:30.973Z,23.26
2022-08-09T10:02:18.430Z,23.50
2022-08-09T10:03:17.466Z,23.47
2022-08-09T10:04:30.609Z,23.47
2022-08-09T10:05:27.080Z,23.63
2022-08-09T10:06:18.379Z,23.78
2022-08-09T10:07:17.371Z,23.59
2022-08-09T10:08:27.585Z,22.72
2022-08-09T10:09:22.614Z,22.93
2022-08-09T10:10:18.534Z,22.82
2022-08-09T10:11:53.788Z,22.81
2022-08-09T10:12:28.476Z,23.23
2022-08-09T10:13:24.644Z,23.19
2022-08-09T10:14:18.405Z,22.96
2022-08-09T10:15:50.774Z,22.89
2022-08-09T10:16:56.755Z,23.14
2022-08-09T10:17:51.439Z,23.50
2022-08-09T10:18:18.462Z,23.96
2022-08-09T10:19:17.261Z,24.24
2022-08-09T10:20:17.246Z,24.06
2022-08-09T10:21:18.362Z,24.11
2022-08-09T10:22:17.207Z,24.00
2022-08-09T10:23:20.354Z,23.81
2022-08-09T10:24:25.571Z,23.44
2022-08-09T10:25:21.049Z,23.16
2022-08-09T10:26:19.493Z,23.56
2022-08-09T10:27:22.195Z,23.78
2022-08-09T10:28:19.089Z,24.04
2022-08-09T10:29:36.122Z,23.93
2022-08-09T10:32:39.962Z,24.46
2022-08-09T10:34:04.828Z,24.18
2022-08-09T10:34:32.716Z,24.05
2022-08-09T10:35:18.070Z,24.36
2022-08-09T10:36:17.082Z,24.46
2022-08-09T10:37:17.048Z,24.51
2022-08-09T10:38:33.934Z,24.11
2022-08-09T10:39:19.342Z,24.23
2022-08-09T10:40:33.782Z,23.89
2022-08-09T10:41:18.119Z,23.82
2022-08-09T10:42:17.067Z,24.09
2022-08-09T10:43:16.985Z,23.78
2022-08-09T10:44:16.986Z,24.06
2022-08-09T10:45:17.102Z,24.31
2022-08-09T10:46:23.437Z,24.15
2022-08-09T10:48:13.411Z,24.16
2022-08-09T10:48:29.892Z,24.42
2022-08-09T10:49:18.012Z,24.55
2022-08-09T10:50:16.971Z,24.86
2022-08-09T10:51:17.981Z,24.90
2022-08-09T10:52:20.611Z,24.71
2022-08-09T10:53:16.872Z,24.64
2022-08-09T10:54:16.890Z,24.39
2022-08-09T10:55:16.852Z,24.19
2022-08-09T10:56:17.580Z,24.14
2022-08-09T10:57:17.841Z,24.45
2022-08-09T10:58:17.277Z,24.30
2022-08-09T10:59:17.802Z,24.37
2022-08-09T11:00:17.794Z,24.56
2022-08-09T11:03:11.986Z,24.71
2022-08-09T11:03:15.111Z,24.89
2022-08-09T11:03:47.152Z,24.83
2022-08-09T11:04:28.283Z,24.87
2022-08-09T11:05:25.287Z,25.14
2022-08-09T11:06:17.725Z,24.82
2022-08-09T11:07:16.726Z,24.75
2022-08-09T11:08:16.697Z,25.14
2022-08-09T11:09:16.695Z,25.20
2022-08-09T11:10:16.674Z,24.97
2022-08-09T11:11:16.665Z,24.97
2022-08-09T11:12:17.430Z,25.19
2022-08-09T11:13:49.467Z,25.01
2022-08-09T11:14:17.631Z,25.16
2022-08-09T11:15:18.968Z,24.84
2022-08-09T11:16:16.611Z,24.59
2022-08-09T11:17:19.306Z,24.19
2022-08-09T11:18:17.296Z,24.49
2022-08-09T11:19:16.598Z,24.52
2022-08-09T11:20:22.963Z,24.55
2022-08-09T11:21:17.644Z,24.82
2022-08-09T11:22:24.259Z,25.01
2022-08-09T11:23:24.114Z,25.30
2022-08-09T11:24:17.608Z,25.16
2022-08-09T11:25:16.505Z,25.12
2022-08-09T11:26:16.501Z,25.14
2022-08-09T11:27:16.528Z,25.24
2022-08-09T11:28:27.892Z,25.02
2022-08-09T11:29:17.479Z,25.12
2022-08-09T11:30:33.772Z,25.66
2022-08-09T11:31:17.460Z,25.91
2022-08-09T11:32:17.543Z,25.85
2022-08-09T11:33:16.455Z,25.83
2022-08-09T11:34:16.403Z,25.49
2022-08-09T11:35:16.403Z,25.71
2022-08-09T11:36:26.721Z,25.71
2022-08-09T11:37:17.906Z,25.91
2022-08-09T11:38:16.436Z,26.06
2022-08-09T11:39:16.686Z,26.31
2022-08-09T11:40:17.949Z,26.24
2022-08-09T11:41:16.337Z,26.28
2022-08-09T11:42:16.424Z,26.12
2022-08-09T11:43:16.315Z,25.96
2022-08-09T11:44:16.367Z,25.90
2022-08-09T11:45:16.287Z,25.94
2022-08-09T11:46:26.700Z,25.94
2022-08-09T11:47:17.269Z,25.76
2022-08-09T11:48:25.048Z,25.78
2022-08-09T11:49:17.302Z,25.67
2022-08-09T11:50:56.797Z,25.57
2022-08-09T11:52:53.852Z,25.66
2022-08-09T11:53:11.448Z,25.86
2022-08-09T11:54:01.042Z,25.98
2022-08-09T11:54:27.733Z,26.08
2022-08-09T11:55:17.175Z,25.91
2022-08-09T11:56:19.457Z,25.90
2022-08-09T11:57:16.158Z,26.13
2022-08-09T11:58:16.148Z,25.98
2022-08-09T11:59:16.153Z,25.93
2022-08-09T12:00:17.962Z,25.90
2022-08-09T12:02:15.894Z,25.67
2022-08-09T12:02:37.185Z,25.82
2022-08-09T12:03:55.728Z,25.83
2022-08-09T12:04:23.517Z,25.51
2022-08-09T12:05:17.702Z,25.44
2022-08-09T12:06:17.072Z,25.67
2022-08-09T12:07:16.051Z,25.34
2022-08-09T12:08:21.628Z,25.48
2022-08-09T12:09:19.695Z,25.64
2022-08-09T12:10:38.475Z,25.67
2022-08-09T12:11:17.048Z,25.72
2022-08-09T12:12:20.375Z,25.83
2022-08-09T12:14:09.600Z,26.24
2022-08-09T12:14:41.071Z,26.12
2022-08-09T12:15:16.986Z,25.54
2022-08-09T12:16:30.450Z,25.53
2022-08-09T12:17:27.552Z,25.90
2022-08-09T12:18:16.938Z,25.97
2022-08-09T12:19:15.935Z,26.11
2022-08-09T12:20:16.593Z,26.29
2022-08-09T12:21:28.434Z,26.01
2022-08-09T12:22:16.978Z,26.27
2022-08-09T12:23:15.877Z,26.03
2022-08-09T12:24:16.876Z,25.91
2022-08-09T12:25:15.861Z,25.75
2022-08-09T12:26:19.755Z,25.85
2022-08-09T12:29:15.034Z,26.09
2022-08-09T12:29:15.497Z,26.00
2022-08-09T12:29:33.468Z,26.12
2022-08-09T12:30:36.814Z,26.23
2022-08-09T12:31:31.051Z,25.94
2022-08-09T12:32:16.797Z,25.86
2022-08-09T12:33:15.769Z,25.75
2022-08-09T12:34:15.771Z,25.93
2022-08-09T12:35:19.153Z,25.98
2022-08-09T12:36:31.302Z,25.78
2022-08-09T12:37:23.649Z,25.86
2022-08-09T12:38:16.718Z,25.91
2022-08-09T12:39:16.794Z,25.85
2022-08-09T12:40:15.687Z,25.96
2022-08-09T12:41:15.677Z,25.98
2022-08-09T12:42:16.266Z,26.13
2022-08-09T12:43:15.655Z,25.64
2022-08-09T12:44:15.652Z,25.41
2022-08-09T12:45:32.177Z,25.66
2022-08-09T12:46:16.631Z,25.71
2022-08-09T12:47:15.618Z,25.64
2022-08-09T12:48:28.032Z,25.97
2022-08-09T12:49:16.742Z,26.28
2022-08-09T12:50:15.592Z,26.03
2022-08-09T12:51:30.346Z,25.96
2022-08-09T12:52:16.565Z,26.28
2022-08-09T12:53:18.257Z,26.00
2022-08-09T12:54:15.540Z,26.19
2022-08-09T12:56:14.892Z,25.97